JTC427 LTBS-LDDU
Flight info
| Callsign | JTC427 |
|---|---|
| Flight time | 1h 39m |
| Altitude | 43000 |
| Route | KEKIK UN127 LMO UN128 FSK UL608 DISOR DCT PEP DCT MAVAR DCT RINAV DCT RETRA DCT MOKUN |
| Aircraft | C750/M-SBDE3FGHRWXY/S |
Departure
| Time | 2026-05-05 18:40 |
|---|---|
| Airport | Dalaman International Airport (LTBS) |
Arrival
| Time | 2026-05-05 20:19 |
|---|---|
| Airport | Dubrovnik Ruđer Bošković Airport (LDDU) |
| Time | Latitude | Longitude | Altitude | Speed | Heading |
|---|---|---|---|---|---|
| 2026-05-05 18:19 | 36.71781 | 28.79067 | 9 ft | 0 kts | 104° |
| 2026-05-05 18:31 | 36.71783 | 28.79055 | -19 ft | 4 kts | 103° |
| 2026-05-05 18:31 | 36.71788 | 28.79023 | 9 ft | 4 kts | 96° |
| 2026-05-05 18:32 | 36.71788 | 28.78991 | 9 ft | 4 kts | 68° |
| 2026-05-05 18:32 | 36.71777 | 28.78973 | 9 ft | 1 kts | 16° |
| 2026-05-05 18:32 | 36.71772 | 28.78971 | 9 ft | 0 kts | 16° |
| 2026-05-05 18:34 | 36.71773 | 28.78971 | 9 ft | 1 kts | 16° |
| 2026-05-05 18:34 | 36.71804 | 28.78982 | 9 ft | 9 kts | 14° |
| 2026-05-05 18:34 | 36.71861 | 28.79002 | 9 ft | 8 kts | 18° |
| 2026-05-05 18:34 | 36.71895 | 28.79039 | 9 ft | 6 kts | 75° |
| 2026-05-05 18:35 | 36.71890 | 28.79087 | 9 ft | 5 kts | 102° |
| 2026-05-05 18:35 | 36.71880 | 28.79141 | 9 ft | 8 kts | 104° |
| 2026-05-05 18:35 | 36.71842 | 28.79206 | 9 ft | 12 kts | 162° |
| 2026-05-05 18:35 | 36.71741 | 28.79182 | 9 ft | 18 kts | 195° |
| 2026-05-05 18:36 | 36.71603 | 28.79136 | 9 ft | 24 kts | 195° |
| 2026-05-05 18:36 | 36.71448 | 28.79084 | 9 ft | 23 kts | 195° |
| 2026-05-05 18:36 | 36.71300 | 28.79034 | 9 ft | 21 kts | 195° |
| 2026-05-05 18:36 | 36.71162 | 28.78987 | 9 ft | 20 kts | 195° |
| 2026-05-05 18:37 | 36.71031 | 28.78942 | 9 ft | 19 kts | 195° |
| 2026-05-05 18:37 | 36.70898 | 28.78896 | 9 ft | 22 kts | 195° |
| 2026-05-05 18:37 | 36.70741 | 28.78843 | 9 ft | 25 kts | 194° |
| 2026-05-05 18:37 | 36.70564 | 28.78784 | 10 ft | 28 kts | 195° |
| 2026-05-05 18:38 | 36.70363 | 28.78714 | 10 ft | 31 kts | 195° |
| 2026-05-05 18:38 | 36.70176 | 28.78650 | 10 ft | 25 kts | 195° |
| 2026-05-05 18:38 | 36.70064 | 28.78670 | 10 ft | 15 kts | 122° |
| 2026-05-05 18:38 | 36.70064 | 28.78784 | 10 ft | 13 kts | 64° |
| 2026-05-05 18:39 | 36.70128 | 28.78845 | 10 ft | 11 kts | 19° |
| 2026-05-05 18:39 | 36.70168 | 28.78861 | 10 ft | 8 kts | 15° |
| 2026-05-05 18:39 | 36.70383 | 28.78933 | 10 ft | 58 kts | 15° |
| 2026-05-05 18:39 | 36.71000 | 28.79139 | 11 ft | 131 kts | 15° |
| 2026-05-05 18:40 | 36.71999 | 28.79483 | 377 ft | 161 kts | 15° |
| 2026-05-05 18:40 | 36.73129 | 28.79767 | 1089 ft | 174 kts | 5° |
| 2026-05-05 18:40 | 36.74325 | 28.79770 | 2066 ft | 176 kts | 359° |
| 2026-05-05 18:40 | 36.75561 | 28.79704 | 2923 ft | 179 kts | 357° |
| 2026-05-05 18:41 | 36.76821 | 28.79637 | 3648 ft | 185 kts | 359° |
| 2026-05-05 18:41 | 36.78127 | 28.79629 | 4383 ft | 191 kts | 1° |
| 2026-05-05 18:41 | 36.79457 | 28.79661 | 5252 ft | 190 kts | 360° |
| 2026-05-05 18:41 | 36.80757 | 28.79230 | 5792 ft | 208 kts | 333° |
| 2026-05-05 18:42 | 36.82026 | 28.78129 | 6121 ft | 237 kts | 325° |
| 2026-05-05 18:42 | 36.83443 | 28.76924 | 6569 ft | 263 kts | 328° |
| 2026-05-05 18:42 | 36.85023 | 28.75756 | 7583 ft | 262 kts | 331° |
| 2026-05-05 18:42 | 36.86580 | 28.74612 | 8113 ft | 267 kts | 330° |
| 2026-05-05 18:43 | 36.88159 | 28.73399 | 7987 ft | 266 kts | 329° |
| 2026-05-05 18:43 | 36.89687 | 28.72121 | 7948 ft | 267 kts | 321° |
| 2026-05-05 18:43 | 36.90813 | 28.70268 | 7982 ft | 271 kts | 304° |
| 2026-05-05 18:43 | 36.91816 | 28.68270 | 7996 ft | 272 kts | 304° |
| 2026-05-05 18:44 | 36.92833 | 28.66292 | 7991 ft | 274 kts | 305° |
| 2026-05-05 18:44 | 36.93830 | 28.64357 | 8862 ft | 273 kts | 304° |
| 2026-05-05 18:44 | 36.94719 | 28.62259 | 10291 ft | 264 kts | 301° |
| 2026-05-05 18:44 | 36.95776 | 28.60262 | 10623 ft | 288 kts | 308° |
| 2026-05-05 18:45 | 36.97022 | 28.58150 | 10801 ft | 315 kts | 307° |
| 2026-05-05 18:45 | 36.98279 | 28.55768 | 10990 ft | 338 kts | 303° |
| 2026-05-05 18:45 | 36.99485 | 28.53244 | 11844 ft | 337 kts | 303° |
| 2026-05-05 18:45 | 37.00731 | 28.50752 | 12627 ft | 339 kts | 304° |
| 2026-05-05 18:46 | 37.02024 | 28.48284 | 13387 ft | 342 kts | 305° |
| 2026-05-05 18:46 | 37.03313 | 28.45775 | 14123 ft | 344 kts | 304° |
| 2026-05-05 18:46 | 37.04575 | 28.43262 | 14749 ft | 347 kts | 304° |
| 2026-05-05 18:46 | 37.05871 | 28.40692 | 15391 ft | 350 kts | 304° |
| 2026-05-05 18:47 | 37.07190 | 28.38110 | 16038 ft | 354 kts | 305° |
| 2026-05-05 18:47 | 37.08796 | 28.35765 | 16635 ft | 355 kts | 319° |
| 2026-05-05 18:47 | 37.10671 | 28.33747 | 17368 ft | 357 kts | 320° |
| 2026-05-05 18:47 | 37.12561 | 28.31703 | 18072 ft | 361 kts | 320° |
| 2026-05-05 18:48 | 37.14456 | 28.29630 | 18737 ft | 364 kts | 320° |
| 2026-05-05 18:48 | 37.16376 | 28.27543 | 19411 ft | 366 kts | 320° |
| 2026-05-05 18:48 | 37.18320 | 28.25457 | 20087 ft | 370 kts | 320° |
| 2026-05-05 18:48 | 37.20286 | 28.23353 | 20727 ft | 374 kts | 320° |
| 2026-05-05 18:49 | 37.22235 | 28.21249 | 21416 ft | 377 kts | 320° |
| 2026-05-05 18:49 | 37.24228 | 28.19090 | 22060 ft | 380 kts | 320° |
| 2026-05-05 18:49 | 37.26239 | 28.16916 | 22697 ft | 383 kts | 320° |
| 2026-05-05 18:49 | 37.28267 | 28.14723 | 23370 ft | 386 kts | 320° |
| 2026-05-05 18:50 | 37.30308 | 28.12524 | 23953 ft | 389 kts | 320° |
| 2026-05-05 18:50 | 37.32365 | 28.10309 | 24537 ft | 390 kts | 320° |
| 2026-05-05 18:50 | 37.34416 | 28.08064 | 25111 ft | 392 kts | 319° |
| 2026-05-05 18:50 | 37.36474 | 28.05799 | 25677 ft | 393 kts | 319° |
| 2026-05-05 18:51 | 37.38507 | 28.03581 | 26274 ft | 394 kts | 320° |
| 2026-05-05 18:51 | 37.40585 | 28.01320 | 26841 ft | 396 kts | 319° |
| 2026-05-05 18:51 | 37.42669 | 27.99040 | 27389 ft | 399 kts | 319° |
| 2026-05-05 18:51 | 37.44764 | 27.96742 | 27979 ft | 399 kts | 319° |
| 2026-05-05 18:52 | 37.46854 | 27.94453 | 28520 ft | 402 kts | 319° |
| 2026-05-05 18:52 | 37.48970 | 27.92136 | 29073 ft | 404 kts | 319° |
| 2026-05-05 18:52 | 37.51094 | 27.89806 | 29637 ft | 406 kts | 319° |
| 2026-05-05 18:52 | 37.53231 | 27.87460 | 30168 ft | 408 kts | 319° |
| 2026-05-05 18:53 | 37.55352 | 27.85129 | 30585 ft | 412 kts | 319° |
| 2026-05-05 18:53 | 37.57517 | 27.82749 | 30976 ft | 415 kts | 319° |
| 2026-05-05 18:53 | 37.59688 | 27.80361 | 31564 ft | 413 kts | 319° |
| 2026-05-05 18:53 | 37.61845 | 27.77985 | 32147 ft | 412 kts | 319° |
| 2026-05-05 18:54 | 37.63994 | 27.75616 | 32695 ft | 411 kts | 319° |
| 2026-05-05 18:54 | 37.66148 | 27.73242 | 33262 ft | 411 kts | 319° |
| 2026-05-05 18:54 | 37.68296 | 27.70871 | 33842 ft | 410 kts | 319° |
| 2026-05-05 18:54 | 37.70443 | 27.68499 | 34365 ft | 410 kts | 319° |
| 2026-05-05 18:55 | 37.72584 | 27.66131 | 34856 ft | 411 kts | 319° |
| 2026-05-05 18:55 | 37.74708 | 27.63780 | 35276 ft | 413 kts | 319° |
| 2026-05-05 18:55 | 37.76871 | 27.61386 | 35754 ft | 413 kts | 319° |
| 2026-05-05 18:55 | 37.79032 | 27.58990 | 36241 ft | 414 kts | 319° |
| 2026-05-05 18:56 | 37.81192 | 27.56594 | 36735 ft | 414 kts | 319° |
| 2026-05-05 18:56 | 37.83359 | 27.54187 | 37225 ft | 415 kts | 319° |
| 2026-05-05 18:56 | 37.85530 | 27.51776 | 37724 ft | 416 kts | 319° |
| 2026-05-05 18:56 | 37.87706 | 27.49356 | 38231 ft | 416 kts | 319° |
| 2026-05-05 18:57 | 37.89878 | 27.46942 | 38717 ft | 417 kts | 319° |
| 2026-05-05 18:57 | 37.92034 | 27.44582 | 39208 ft | 415 kts | 319° |
| 2026-05-05 18:57 | 37.94225 | 27.42201 | 39613 ft | 416 kts | 319° |
| 2026-05-05 18:57 | 37.96415 | 27.39798 | 40001 ft | 417 kts | 319° |
| 2026-05-05 18:58 | 37.98600 | 27.37385 | 40408 ft | 418 kts | 318° |
| 2026-05-05 18:58 | 38.00798 | 27.34966 | 40813 ft | 419 kts | 319° |
| 2026-05-05 18:58 | 38.03008 | 27.32540 | 41205 ft | 421 kts | 319° |
| 2026-05-05 18:58 | 38.05227 | 27.30098 | 41601 ft | 422 kts | 319° |
| 2026-05-05 18:59 | 38.07446 | 27.27650 | 41991 ft | 423 kts | 318° |
| 2026-05-05 18:59 | 38.09638 | 27.25228 | 42384 ft | 424 kts | 319° |
| 2026-05-05 18:59 | 38.11869 | 27.22766 | 42789 ft | 425 kts | 319° |
| 2026-05-05 18:59 | 38.14106 | 27.20297 | 43040 ft | 429 kts | 318° |
| 2026-05-05 19:00 | 38.18702 | 27.15208 | 43043 ft | 447 kts | 318° |
| 2026-05-05 19:00 | 38.23481 | 27.09912 | 43060 ft | 463 kts | 318° |
| 2026-05-05 19:01 | 38.28391 | 27.04460 | 43053 ft | 474 kts | 318° |
| 2026-05-05 19:01 | 38.33329 | 26.98969 | 43047 ft | 474 kts | 319° |
| 2026-05-05 19:02 | 38.38324 | 26.93480 | 43042 ft | 475 kts | 319° |
| 2026-05-05 19:02 | 38.43317 | 26.87951 | 43040 ft | 475 kts | 319° |
| 2026-05-05 19:03 | 38.48293 | 26.82446 | 43042 ft | 474 kts | 319° |
| 2026-05-05 19:03 | 38.53232 | 26.76963 | 43039 ft | 474 kts | 319° |
| 2026-05-05 19:04 | 38.58199 | 26.71443 | 43041 ft | 474 kts | 319° |
| 2026-05-05 19:04 | 38.63174 | 26.65902 | 43051 ft | 474 kts | 319° |
| 2026-05-05 19:05 | 38.68141 | 26.60359 | 43056 ft | 474 kts | 319° |
| 2026-05-05 19:05 | 38.73109 | 26.54806 | 43054 ft | 473 kts | 319° |
| 2026-05-05 19:06 | 38.78017 | 26.49307 | 43058 ft | 473 kts | 319° |
| 2026-05-05 19:06 | 38.82966 | 26.43754 | 43058 ft | 473 kts | 319° |
| 2026-05-05 19:07 | 38.87169 | 26.39287 | 43061 ft | 473 kts | 320° |
| 2026-05-05 19:07 | 38.93105 | 26.32972 | 43074 ft | 474 kts | 320° |
| 2026-05-05 19:08 | 38.98141 | 26.27625 | 43072 ft | 474 kts | 320° |
| 2026-05-05 19:08 | 39.03198 | 26.22231 | 43070 ft | 471 kts | 320° |
| 2026-05-05 19:09 | 39.08240 | 26.16852 | 43070 ft | 471 kts | 320° |
| 2026-05-05 19:09 | 39.13284 | 26.11454 | 43070 ft | 471 kts | 320° |
| 2026-05-05 19:10 | 39.17469 | 26.06971 | 43058 ft | 473 kts | 320° |
| 2026-05-05 19:10 | 39.23339 | 26.00668 | 43067 ft | 472 kts | 320° |
| 2026-05-05 19:11 | 39.28376 | 25.95249 | 43066 ft | 472 kts | 320° |
| 2026-05-05 19:11 | 39.33387 | 25.89734 | 43062 ft | 473 kts | 318° |
| 2026-05-05 19:12 | 39.37493 | 25.85098 | 43058 ft | 473 kts | 319° |
| 2026-05-05 19:12 | 39.43308 | 25.78650 | 43061 ft | 474 kts | 319° |
| 2026-05-05 19:13 | 39.48290 | 25.73050 | 43069 ft | 475 kts | 319° |
| 2026-05-05 19:13 | 39.53291 | 25.67460 | 43069 ft | 475 kts | 319° |
| 2026-05-05 19:14 | 39.57422 | 25.62809 | 43055 ft | 474 kts | 319° |
| 2026-05-05 19:14 | 39.62407 | 25.57206 | 43054 ft | 474 kts | 319° |
| 2026-05-05 19:15 | 39.67389 | 25.51585 | 43048 ft | 476 kts | 319° |
| 2026-05-05 19:15 | 39.72388 | 25.45941 | 43061 ft | 478 kts | 319° |
| 2026-05-05 19:16 | 39.77360 | 25.40311 | 43062 ft | 478 kts | 319° |
| 2026-05-05 19:16 | 39.82373 | 25.34626 | 43059 ft | 478 kts | 319° |
| 2026-05-05 19:17 | 39.87377 | 25.28938 | 43047 ft | 478 kts | 319° |
| 2026-05-05 19:17 | 39.92228 | 25.23028 | 43033 ft | 478 kts | 311° |
| 2026-05-05 19:18 | 39.96111 | 25.16061 | 43060 ft | 479 kts | 306° |
| 2026-05-05 19:18 | 39.99968 | 25.08982 | 43055 ft | 479 kts | 306° |
| 2026-05-05 19:19 | 40.03797 | 25.01889 | 43057 ft | 479 kts | 306° |
| 2026-05-05 19:19 | 40.07630 | 24.94798 | 43047 ft | 478 kts | 306° |
| 2026-05-05 19:20 | 40.11426 | 24.87746 | 43050 ft | 478 kts | 306° |
| 2026-05-05 19:20 | 40.15253 | 24.80628 | 43045 ft | 478 kts | 306° |
| 2026-05-05 19:21 | 40.19066 | 24.73518 | 43047 ft | 478 kts | 306° |
| 2026-05-05 19:21 | 40.22884 | 24.66382 | 43046 ft | 478 kts | 306° |
| 2026-05-05 19:22 | 40.26687 | 24.59258 | 43045 ft | 479 kts | 306° |
| 2026-05-05 19:22 | 40.30470 | 24.52154 | 43044 ft | 479 kts | 306° |
| 2026-05-05 19:23 | 40.34266 | 24.45011 | 43039 ft | 478 kts | 306° |
| 2026-05-05 19:23 | 40.38067 | 24.37843 | 43037 ft | 478 kts | 306° |
| 2026-05-05 19:24 | 40.41854 | 24.30684 | 43036 ft | 478 kts | 306° |
| 2026-05-05 19:24 | 40.45615 | 24.23558 | 43033 ft | 478 kts | 306° |
| 2026-05-05 19:25 | 40.49393 | 24.16384 | 43038 ft | 478 kts | 306° |
| 2026-05-05 19:25 | 40.53169 | 24.09195 | 43036 ft | 478 kts | 306° |
| 2026-05-05 19:26 | 40.56935 | 24.02011 | 43037 ft | 478 kts | 306° |
| 2026-05-05 19:26 | 40.60702 | 23.94806 | 43034 ft | 478 kts | 305° |
| 2026-05-05 19:27 | 40.64429 | 23.87658 | 43041 ft | 478 kts | 305° |
| 2026-05-05 19:27 | 40.68186 | 23.80435 | 43030 ft | 478 kts | 305° |
| 2026-05-05 19:28 | 40.71933 | 23.73217 | 43032 ft | 479 kts | 305° |
| 2026-05-05 19:28 | 40.75682 | 23.65975 | 43040 ft | 478 kts | 305° |
| 2026-05-05 19:29 | 40.79418 | 23.58742 | 43029 ft | 478 kts | 305° |
| 2026-05-05 19:29 | 40.83130 | 23.51540 | 43031 ft | 478 kts | 305° |
| 2026-05-05 19:30 | 40.86859 | 23.44287 | 43019 ft | 478 kts | 305° |
| 2026-05-05 19:30 | 40.90582 | 23.37029 | 43021 ft | 477 kts | 305° |
| 2026-05-05 19:31 | 40.94295 | 23.29775 | 43015 ft | 477 kts | 305° |
| 2026-05-05 19:31 | 40.97982 | 23.22554 | 43011 ft | 477 kts | 305° |
| 2026-05-05 19:32 | 41.01685 | 23.15286 | 43011 ft | 477 kts | 305° |
| 2026-05-05 19:32 | 41.05385 | 23.08007 | 43021 ft | 475 kts | 305° |
| 2026-05-05 19:33 | 41.09076 | 23.00730 | 43008 ft | 476 kts | 305° |
| 2026-05-05 19:33 | 41.13235 | 22.93915 | 43014 ft | 476 kts | 311° |
| 2026-05-05 19:34 | 41.17467 | 22.87245 | 43024 ft | 476 kts | 310° |
| 2026-05-05 19:35 | 41.23270 | 22.76612 | 42989 ft | 475 kts | 297° |
| 2026-05-05 19:35 | 41.25249 | 22.68235 | 42998 ft | 479 kts | 282° |
| 2026-05-05 19:36 | 41.25936 | 22.59409 | 43011 ft | 482 kts | 278° |
| 2026-05-05 19:36 | 41.26590 | 22.50623 | 43014 ft | 481 kts | 278° |
| 2026-05-05 19:37 | 41.27222 | 22.41769 | 43001 ft | 481 kts | 278° |
| 2026-05-05 19:37 | 41.27858 | 22.32926 | 43000 ft | 481 kts | 278° |
| 2026-05-05 19:38 | 41.28477 | 22.24143 | 43006 ft | 481 kts | 278° |
| 2026-05-05 19:38 | 41.29096 | 22.15288 | 43018 ft | 481 kts | 278° |
| 2026-05-05 19:39 | 41.29707 | 22.06457 | 43015 ft | 480 kts | 277° |
| 2026-05-05 19:39 | 41.30311 | 21.97613 | 43020 ft | 480 kts | 277° |
| 2026-05-05 19:40 | 41.30909 | 21.88790 | 43036 ft | 481 kts | 277° |
| 2026-05-05 19:40 | 41.31492 | 21.80003 | 43041 ft | 480 kts | 277° |
| 2026-05-05 19:41 | 41.32078 | 21.71170 | 43040 ft | 480 kts | 277° |
| 2026-05-05 19:41 | 41.32656 | 21.62296 | 43048 ft | 483 kts | 277° |
| 2026-05-05 19:42 | 41.33227 | 21.53431 | 43043 ft | 482 kts | 277° |
| 2026-05-05 19:42 | 41.34223 | 21.44720 | 43037 ft | 478 kts | 288° |
| 2026-05-05 19:43 | 41.36806 | 21.36612 | 43058 ft | 477 kts | 297° |
| 2026-05-05 19:43 | 41.39711 | 21.28659 | 43059 ft | 477 kts | 297° |
| 2026-05-05 19:44 | 41.42608 | 21.20729 | 43067 ft | 477 kts | 297° |
| 2026-05-05 19:44 | 41.45502 | 21.12779 | 43061 ft | 477 kts | 297° |
| 2026-05-05 19:45 | 41.48372 | 21.04870 | 43061 ft | 477 kts | 297° |
| 2026-05-05 19:45 | 41.51253 | 20.96914 | 43072 ft | 477 kts | 296° |
| 2026-05-05 19:46 | 41.54126 | 20.88952 | 43068 ft | 477 kts | 296° |
| 2026-05-05 19:46 | 41.57001 | 20.80968 | 43074 ft | 477 kts | 296° |
| 2026-05-05 19:47 | 41.59836 | 20.73069 | 43087 ft | 476 kts | 296° |
| 2026-05-05 19:47 | 41.62693 | 20.65089 | 43082 ft | 476 kts | 296° |
| 2026-05-05 19:48 | 41.65539 | 20.57114 | 43079 ft | 474 kts | 296° |
| 2026-05-05 19:48 | 41.68587 | 20.49287 | 43090 ft | 476 kts | 300° |
| 2026-05-05 19:49 | 41.71850 | 20.41678 | 43091 ft | 476 kts | 300° |
| 2026-05-05 19:49 | 41.75120 | 20.33976 | 43093 ft | 476 kts | 300° |
| 2026-05-05 19:50 | 41.78395 | 20.26285 | 43086 ft | 475 kts | 300° |
| 2026-05-05 19:50 | 41.81658 | 20.18574 | 43106 ft | 476 kts | 300° |
| 2026-05-05 19:51 | 41.84898 | 20.10917 | 43103 ft | 474 kts | 299° |
| 2026-05-05 19:51 | 41.88149 | 20.03199 | 43103 ft | 475 kts | 299° |
| 2026-05-05 19:52 | 41.91401 | 19.95469 | 43094 ft | 475 kts | 299° |
| 2026-05-05 19:52 | 41.94644 | 19.87735 | 43101 ft | 475 kts | 299° |
| 2026-05-05 19:52 | 41.96236 | 19.83931 | 43086 ft | 455 kts | 299° |
| 2026-05-05 19:53 | 41.97740 | 19.80336 | 42945 ft | 423 kts | 299° |
| 2026-05-05 19:53 | 41.99311 | 19.77084 | 42696 ft | 421 kts | 306° |
| 2026-05-05 19:53 | 42.01051 | 19.73922 | 42535 ft | 421 kts | 305° |
| 2026-05-05 19:53 | 42.02771 | 19.70739 | 42387 ft | 421 kts | 305° |
| 2026-05-05 19:54 | 42.04485 | 19.67548 | 42264 ft | 420 kts | 305° |
| 2026-05-05 19:54 | 42.06209 | 19.64369 | 42145 ft | 420 kts | 305° |
| 2026-05-05 19:54 | 42.07920 | 19.61225 | 41613 ft | 414 kts | 305° |
| 2026-05-05 19:54 | 42.09616 | 19.58087 | 40545 ft | 416 kts | 305° |
| 2026-05-05 19:55 | 42.11301 | 19.54954 | 39688 ft | 413 kts | 305° |
| 2026-05-05 19:55 | 42.12979 | 19.51841 | 38828 ft | 409 kts | 306° |
| 2026-05-05 19:55 | 42.14645 | 19.48757 | 37698 ft | 407 kts | 306° |
| 2026-05-05 19:55 | 42.16298 | 19.45686 | 37293 ft | 411 kts | 305° |
| 2026-05-05 19:56 | 42.17990 | 19.42535 | 36741 ft | 416 kts | 305° |
| 2026-05-05 19:56 | 42.19685 | 19.39381 | 36206 ft | 415 kts | 305° |
| 2026-05-05 19:56 | 42.21380 | 19.36218 | 35655 ft | 416 kts | 304° |
| 2026-05-05 19:56 | 42.22860 | 19.32871 | 35097 ft | 417 kts | 296° |
| 2026-05-05 19:57 | 42.23962 | 19.29267 | 34560 ft | 418 kts | 290° |
| 2026-05-05 19:57 | 42.24922 | 19.25558 | 34021 ft | 419 kts | 290° |
| 2026-05-05 19:57 | 42.25905 | 19.21850 | 33466 ft | 421 kts | 290° |
| 2026-05-05 19:57 | 42.26894 | 19.18126 | 32904 ft | 423 kts | 290° |
| 2026-05-05 19:58 | 42.27862 | 19.14426 | 32352 ft | 424 kts | 290° |
| 2026-05-05 19:58 | 42.28842 | 19.10659 | 31782 ft | 426 kts | 290° |
| 2026-05-05 19:58 | 42.29829 | 19.06886 | 31223 ft | 427 kts | 290° |
| 2026-05-05 19:58 | 42.30824 | 19.03093 | 30654 ft | 432 kts | 290° |
| 2026-05-05 19:59 | 42.31816 | 18.99286 | 30071 ft | 428 kts | 290° |
| 2026-05-05 19:59 | 42.32795 | 18.95513 | 29495 ft | 424 kts | 290° |
| 2026-05-05 19:59 | 42.33771 | 18.91758 | 28939 ft | 421 kts | 290° |
| 2026-05-05 19:59 | 42.34738 | 18.88039 | 28390 ft | 419 kts | 290° |
| 2026-05-05 20:00 | 42.35698 | 18.84332 | 27843 ft | 416 kts | 290° |
| 2026-05-05 20:00 | 42.36638 | 18.80702 | 27310 ft | 414 kts | 290° |
| 2026-05-05 20:00 | 42.37582 | 18.77043 | 26780 ft | 411 kts | 289° |
| 2026-05-05 20:00 | 42.38519 | 18.73407 | 26261 ft | 408 kts | 289° |
| 2026-05-05 20:01 | 42.39446 | 18.69809 | 25736 ft | 406 kts | 289° |
| 2026-05-05 20:01 | 42.40370 | 18.66217 | 25211 ft | 404 kts | 289° |
| 2026-05-05 20:01 | 42.41288 | 18.62637 | 24686 ft | 402 kts | 289° |
| 2026-05-05 20:01 | 42.42201 | 18.59077 | 24164 ft | 400 kts | 289° |
| 2026-05-05 20:02 | 42.43109 | 18.55532 | 23631 ft | 397 kts | 289° |
| 2026-05-05 20:02 | 42.44008 | 18.52013 | 23080 ft | 394 kts | 289° |
| 2026-05-05 20:02 | 42.44946 | 18.48537 | 22551 ft | 392 kts | 293° |
| 2026-05-05 20:02 | 42.46360 | 18.45444 | 22036 ft | 391 kts | 304° |
| 2026-05-05 20:03 | 42.47952 | 18.42464 | 21536 ft | 390 kts | 304° |
| 2026-05-05 20:03 | 42.49521 | 18.39481 | 21033 ft | 387 kts | 304° |
| 2026-05-05 20:03 | 42.51066 | 18.36508 | 20526 ft | 385 kts | 304° |
| 2026-05-05 20:03 | 42.52609 | 18.33556 | 20023 ft | 382 kts | 304° |
| 2026-05-05 20:04 | 42.54118 | 18.30626 | 19521 ft | 376 kts | 302° |
| 2026-05-05 20:04 | 42.55110 | 18.27479 | 19029 ft | 353 kts | 285° |
| 2026-05-05 20:04 | 42.55444 | 18.24289 | 18586 ft | 334 kts | 272° |
| 2026-05-05 20:04 | 42.55210 | 18.21285 | 18155 ft | 318 kts | 259° |
| 2026-05-05 20:05 | 42.54496 | 18.18497 | 17753 ft | 310 kts | 248° |
| 2026-05-05 20:05 | 42.53636 | 18.15834 | 17364 ft | 308 kts | 249° |
| 2026-05-05 20:05 | 42.52793 | 18.13172 | 16957 ft | 307 kts | 249° |
| 2026-05-05 20:05 | 42.51951 | 18.10526 | 16551 ft | 304 kts | 249° |
| 2026-05-05 20:06 | 42.51457 | 18.07784 | 16119 ft | 300 kts | 268° |
| 2026-05-05 20:06 | 42.51686 | 18.04999 | 15742 ft | 298 kts | 285° |
| 2026-05-05 20:06 | 42.52532 | 18.02447 | 15371 ft | 296 kts | 297° |
| 2026-05-05 20:06 | 42.53512 | 17.99992 | 14992 ft | 296 kts | 297° |
| 2026-05-05 20:07 | 42.54466 | 17.97583 | 14612 ft | 294 kts | 297° |
| 2026-05-05 20:07 | 42.55422 | 17.95142 | 14232 ft | 292 kts | 297° |
| 2026-05-05 20:07 | 42.56374 | 17.92718 | 13847 ft | 290 kts | 297° |
| 2026-05-05 20:07 | 42.57321 | 17.90312 | 13455 ft | 288 kts | 297° |
| 2026-05-05 20:08 | 42.58257 | 17.87926 | 13083 ft | 287 kts | 297° |
| 2026-05-05 20:08 | 42.59191 | 17.85543 | 12715 ft | 286 kts | 297° |
| 2026-05-05 20:08 | 42.60122 | 17.83166 | 12349 ft | 285 kts | 297° |
| 2026-05-05 20:08 | 42.61050 | 17.80798 | 11984 ft | 283 kts | 297° |
| 2026-05-05 20:09 | 42.61970 | 17.78445 | 11621 ft | 282 kts | 297° |
| 2026-05-05 20:09 | 42.62875 | 17.76130 | 11261 ft | 281 kts | 297° |
| 2026-05-05 20:09 | 42.63786 | 17.73796 | 10910 ft | 280 kts | 297° |
| 2026-05-05 20:09 | 42.64695 | 17.71466 | 10550 ft | 278 kts | 297° |
| 2026-05-05 20:10 | 42.65777 | 17.69311 | 10152 ft | 280 kts | 313° |
| 2026-05-05 20:10 | 42.67405 | 17.67870 | 9795 ft | 282 kts | 335° |
| 2026-05-05 20:10 | 42.69341 | 17.67385 | 9420 ft | 287 kts | 358° |
| 2026-05-05 20:10 | 42.71294 | 17.67987 | 9060 ft | 292 kts | 21° |
| 2026-05-05 20:11 | 42.73096 | 17.69241 | 8717 ft | 292 kts | 26° |
| 2026-05-05 20:11 | 42.74726 | 17.70822 | 8276 ft | 295 kts | 47° |
| 2026-05-05 20:11 | 42.75712 | 17.73233 | 7902 ft | 292 kts | 73° |
| 2026-05-05 20:11 | 42.75850 | 17.75952 | 7524 ft | 288 kts | 101° |
| 2026-05-05 20:12 | 42.75185 | 17.78458 | 7180 ft | 280 kts | 120° |
| 2026-05-05 20:12 | 42.74266 | 17.80782 | 6835 ft | 278 kts | 122° |
| 2026-05-05 20:12 | 42.73349 | 17.83086 | 6456 ft | 273 kts | 122° |
| 2026-05-05 20:12 | 42.72464 | 17.85354 | 6074 ft | 276 kts | 122° |
| 2026-05-05 20:13 | 42.71572 | 17.87648 | 5699 ft | 273 kts | 121° |
| 2026-05-05 20:13 | 42.70697 | 17.89920 | 5343 ft | 269 kts | 121° |
| 2026-05-05 20:13 | 42.69839 | 17.92171 | 4989 ft | 266 kts | 121° |
| 2026-05-05 20:13 | 42.69010 | 17.94366 | 4642 ft | 264 kts | 121° |
| 2026-05-05 20:14 | 42.68177 | 17.96571 | 4282 ft | 262 kts | 120° |
| 2026-05-05 20:14 | 42.67352 | 17.98763 | 3946 ft | 259 kts | 119° |
| 2026-05-05 20:14 | 42.66543 | 18.00940 | 3603 ft | 257 kts | 119° |
| 2026-05-05 20:14 | 42.65718 | 18.03071 | 3396 ft | 251 kts | 123° |
| 2026-05-05 20:15 | 42.64770 | 18.05045 | 3402 ft | 253 kts | 124° |
| 2026-05-05 20:15 | 42.63910 | 18.07140 | 3401 ft | 256 kts | 120° |
| 2026-05-05 20:15 | 42.63112 | 18.09235 | 3097 ft | 239 kts | 119° |
| 2026-05-05 20:15 | 42.62362 | 18.11137 | 2789 ft | 218 kts | 120° |
| 2026-05-05 20:16 | 42.61708 | 18.12774 | 2499 ft | 178 kts | 120° |
| 2026-05-05 20:16 | 42.61176 | 18.14125 | 2283 ft | 152 kts | 120° |
| 2026-05-05 20:16 | 42.60696 | 18.15339 | 2098 ft | 141 kts | 120° |
| 2026-05-05 20:16 | 42.60242 | 18.16485 | 1874 ft | 136 kts | 118° |
| 2026-05-05 20:17 | 42.59799 | 18.17588 | 1633 ft | 131 kts | 119° |
| 2026-05-05 20:17 | 42.59370 | 18.18655 | 1418 ft | 128 kts | 119° |
| 2026-05-05 20:17 | 42.58942 | 18.19702 | 1260 ft | 126 kts | 117° |
| 2026-05-05 20:17 | 42.58540 | 18.20731 | 1133 ft | 122 kts | 115° |
| 2026-05-05 20:18 | 42.58164 | 18.21745 | 1041 ft | 122 kts | 116° |
| 2026-05-05 20:18 | 42.57750 | 18.22787 | 923 ft | 127 kts | 118° |
| 2026-05-05 20:18 | 42.57334 | 18.23834 | 725 ft | 129 kts | 119° |
| 2026-05-05 20:18 | 42.56917 | 18.24898 | 543 ft | 121 kts | 117° |
| 2026-05-05 20:19 | 42.56571 | 18.25795 | 527 ft | 92 kts | 117° |
| 2026-05-05 20:19 | 42.56337 | 18.26378 | 522 ft | 51 kts | 120° |
| 2026-05-05 20:19 | 42.56213 | 18.26671 | 523 ft | 22 kts | 121° |
| 2026-05-05 20:19 | 42.56155 | 18.26687 | 524 ft | 5 kts | 267° |
| 2026-05-05 20:20 | 42.56138 | 18.26578 | 523 ft | 16 kts | 245° |
| 2026-05-05 20:20 | 42.56088 | 18.26496 | 520 ft | 6 kts | 189° |
| 2026-05-05 20:20 | 42.56072 | 18.26493 | 520 ft | 2 kts | 189° |
| 2026-05-05 20:20 | 42.56037 | 18.26474 | 518 ft | 6 kts | 207° |
| 2026-05-05 20:21 | 42.56025 | 18.26465 | 518 ft | 0 kts | 210° |
| 2026-05-05 20:21 | 42.56024 | 18.26464 | 518 ft | 0 kts | 209° |